Overview Statistics Trail Chart Weather Telemetry Raw packets
 

This is the latest recevied weather packets stored in our database for station/object EA5JMY-10. If no packets are shown the sender has not sent any weather packets the latest 10 day(s).

<< 27 28 29 30 31 32 33 >>
Time Temp. Humidity Pressure Rain* Wind** Luminosity Snow
1787981060 20.56° C 51% 1019.9 hPa - - - -
1787980160 21.67° C 48% 1019.6 hPa - - - -
1787979260 21.67° C 51% 1019.4 hPa - - - -
1787978359 20.56° C 55% 1019.4 hPa - - - -
1787977471 21.67° C 50% 1019.3 hPa - - - -
1787976559 21.67° C 51% 1019.4 hPa - - - -
1787975659 21.67° C 50% 1019.3 hPa - - - -
1787974759 21.67° C 49% 1019.1 hPa - - - -
1787973862 22.22° C 48% 1019.1 hPa - - - -
1787972959 22.22° C 48% 1019.2 hPa - - - -
1787972059 22.78° C 48% 1019.3 hPa - - - -
1787971159 23.33° C 46% 1019.3 hPa - - - -
1787970258 23.33° C 45% 1019.4 hPa - - - -
1787969358 25° C 43% 1019.4 hPa - - - -
1787968458 25° C 43% 1019.4 hPa - - - -
1787967558 25° C 44% 1019.3 hPa - - - -
1787966658 25° C 45% 1019.5 hPa - - - -
1787965757 25° C 43% 1019.6 hPa - - - -
1787964856 25° C 44% 1019.7 hPa - - - -
1787963956 23.89° C 45% 1019.8 hPa - - - -
1787963056 23.89° C 47% 1020 hPa - - - -
1787962155 23.33° C 49% 1019.9 hPa - - - -
1787961255 24.44° C 49% 1020 hPa - - - -
1787960355 25° C 49% 1020.1 hPa - - - -
1787959454 25° C 50% 1020.1 hPa - - - -

* Rain since midnight (hover to see other rain measurements)
** Current wind speed in m/s (hover to see current wind gust speed)